sensor_id;sensor_type;location;lat;lon;timestamp;temperature;humidity
22337;DHT22;14992;50.844;4.418;2023-03-13T00:01:36;12.00;99.90
22337;DHT22;14992;50.844;4.418;2023-03-13T00:04:05;12.00;99.90
22337;DHT22;14992;50.844;4.418;2023-03-13T00:06:35;12.10;99.90
22337;DHT22;14992;50.844;4.418;2023-03-13T00:09:05;12.10;99.90
22337;DHT22;14992;50.844;4.418;2023-03-13T00:11:35;12.10;99.90
22337;DHT22;14992;50.844;4.418;2023-03-13T00:14:05;12.10;99.90
22337;DHT22;14992;50.844;4.418;2023-03-13T00:16:35;12.20;99.90
22337;DHT22;14992;50.844;4.418;2023-03-13T00:19:07;12.20;99.90
22337;DHT22;14992;50.844;4.418;2023-03-13T00:21:36;12.20;99.90
22337;DHT22;14992;50.844;4.418;2023-03-13T00:24:10;12.20;99.90
22337;DHT22;14992;50.844;4.418;2023-03-13T00:26:39;12.20;99.90
22337;DHT22;14992;50.844;4.418;2023-03-13T00:29:07;12.20;99.90
22337;DHT22;14992;50.844;4.418;2023-03-13T00:31:38;12.20;99.90
22337;DHT22;14992;50.844;4.418;2023-03-13T00:34:08;12.20;99.90
22337;DHT22;14992;50.844;4.418;2023-03-13T00:36:38;12.20;99.90
22337;DHT22;14992;50.844;4.418;2023-03-13T00:39:06;12.30;99.90
22337;DHT22;14992;50.844;4.418;2023-03-13T00:41:36;12.30;99.90
22337;DHT22;14992;50.844;4.418;2023-03-13T00:44:05;12.30;99.90
22337;DHT22;14992;50.844;4.418;2023-03-13T00:46:35;12.30;99.90
22337;DHT22;14992;50.844;4.418;2023-03-13T00:49:05;12.10;99.90
22337;DHT22;14992;50.844;4.418;2023-03-13T00:51:34;12.20;99.90
22337;DHT22;14992;50.844;4.418;2023-03-13T00:54:03;12.20;99.90
22337;DHT22;14992;50.844;4.418;2023-03-13T00:56:33;12.20;99.90
22337;DHT22;14992;50.844;4.418;2023-03-13T00:59:03;12.20;99.90
22337;DHT22;14992;50.844;4.418;2023-03-13T01:01:34;12.30;99.90
22337;DHT22;14992;50.844;4.418;2023-03-13T01:04:07;12.20;99.90
22337;DHT22;14992;50.844;4.418;2023-03-13T01:06:37;12.30;99.90
22337;DHT22;14992;50.844;4.418;2023-03-13T01:09:11;12.30;99.90
22337;DHT22;14992;50.844;4.418;2023-03-13T01:11:42;12.40;99.90
22337;DHT22;14992;50.844;4.418;2023-03-13T01:14:17;12.30;99.90
22337;DHT22;14992;50.844;4.418;2023-03-13T01:16:46;12.40;99.90
22337;DHT22;14992;50.844;4.418;2023-03-13T01:19:16;12.50;99.90
22337;DHT22;14992;50.844;4.418;2023-03-13T01:21:45;12.50;99.90
22337;DHT22;14992;50.844;4.418;2023-03-13T01:24:14;12.50;99.90
22337;DHT22;14992;50.844;4.418;2023-03-13T01:26:43;12.60;99.90
22337;DHT22;14992;50.844;4.418;2023-03-13T01:29:12;12.60;99.90
22337;DHT22;14992;50.844;4.418;2023-03-13T01:31:41;12.70;99.90
22337;DHT22;14992;50.844;4.418;2023-03-13T01:34:10;12.70;99.90
22337;DHT22;14992;50.844;4.418;2023-03-13T01:36:40;12.80;99.90
22337;DHT22;14992;50.844;4.418;2023-03-13T01:39:10;12.80;99.90
22337;DHT22;14992;50.844;4.418;2023-03-13T01:41:39;12.80;99.90
22337;DHT22;14992;50.844;4.418;2023-03-13T01:44:19;12.80;99.90
22337;DHT22;14992;50.844;4.418;2023-03-13T01:46:49;12.80;99.90
22337;DHT22;14992;50.844;4.418;2023-03-13T01:49:24;12.90;99.90
22337;DHT22;14992;50.844;4.418;2023-03-13T01:52:10;12.90;99.90
22337;DHT22;14992;50.844;4.418;2023-03-13T01:54:50;12.90;99.90
22337;DHT22;14992;50.844;4.418;2023-03-13T01:57:24;12.80;99.90
22337;DHT22;14992;50.844;4.418;2023-03-13T01:59:58;12.80;99.90
22337;DHT22;14992;50.844;4.418;2023-03-13T02:02:28;12.80;99.90
22337;DHT22;14992;50.844;4.418;2023-03-13T02:05:00;12.90;99.90
22337;DHT22;14992;50.844;4.418;2023-03-13T02:07:35;13.00;99.90
22337;DHT22;14992;50.844;4.418;2023-03-13T02:10:08;13.00;99.90
22337;DHT22;14992;50.844;4.418;2023-03-13T02:12:38;13.00;99.90
22337;DHT22;14992;50.844;4.418;2023-03-13T02:15:10;13.00;99.90
22337;DHT22;14992;50.844;4.418;2023-03-13T02:17:41;13.10;99.90
22337;DHT22;14992;50.844;4.418;2023-03-13T02:20:12;13.00;99.90
22337;DHT22;14992;50.844;4.418;2023-03-13T02:22:47;13.10;99.90
22337;DHT22;14992;50.844;4.418;2023-03-13T02:25:33;13.00;99.90
22337;DHT22;14992;50.844;4.418;2023-03-13T02:28:08;13.10;99.90
22337;DHT22;14992;50.844;4.418;2023-03-13T02:30:41;13.10;99.90
22337;DHT22;14992;50.844;4.418;2023-03-13T02:33:11;13.10;99.90
22337;DHT22;14992;50.844;4.418;2023-03-13T02:35:41;13.20;99.90
22337;DHT22;14992;50.844;4.418;2023-03-13T02:38:15;13.20;99.90
22337;DHT22;14992;50.844;4.418;2023-03-13T02:40:48;13.30;99.90
22337;DHT22;14992;50.844;4.418;2023-03-13T02:43:22;13.30;99.90
22337;DHT22;14992;50.844;4.418;2023-03-13T02:46:05;13.30;99.90
22337;DHT22;14992;50.844;4.418;2023-03-13T02:48:41;13.40;99.90
22337;DHT22;14992;50.844;4.418;2023-03-13T02:51:17;13.40;99.90
22337;DHT22;14992;50.844;4.418;2023-03-13T02:53:48;13.40;99.90
22337;DHT22;14992;50.844;4.418;2023-03-13T02:56:21;13.50;99.90
22337;DHT22;14992;50.844;4.418;2023-03-13T02:58:50;13.50;99.90
22337;DHT22;14992;50.844;4.418;2023-03-13T03:01:22;13.50;99.90
22337;DHT22;14992;50.844;4.418;2023-03-13T03:03:51;13.50;99.90
22337;DHT22;14992;50.844;4.418;2023-03-13T03:06:20;13.60;99.90
22337;DHT22;14992;50.844;4.418;2023-03-13T03:08:49;13.70;99.90
22337;DHT22;14992;50.844;4.418;2023-03-13T03:11:20;13.60;99.90
22337;DHT22;14992;50.844;4.418;2023-03-13T03:13:55;13.60;99.90
22337;DHT22;14992;50.844;4.418;2023-03-13T03:16:25;13.70;99.90
22337;DHT22;14992;50.844;4.418;2023-03-13T03:18:54;13.70;99.90
22337;DHT22;14992;50.844;4.418;2023-03-13T03:21:23;13.70;99.90
22337;DHT22;14992;50.844;4.418;2023-03-13T03:23:52;13.70;99.90
22337;DHT22;14992;50.844;4.418;2023-03-13T03:26:22;13.70;99.90
22337;DHT22;14992;50.844;4.418;2023-03-13T03:28:51;13.70;99.90
22337;DHT22;14992;50.844;4.418;2023-03-13T03:31:20;13.70;99.90
22337;DHT22;14992;50.844;4.418;2023-03-13T03:33:50;13.80;99.90
22337;DHT22;14992;50.844;4.418;2023-03-13T03:36:21;13.80;99.90
22337;DHT22;14992;50.844;4.418;2023-03-13T03:38:50;13.80;99.90
22337;DHT22;14992;50.844;4.418;2023-03-13T03:41:25;13.80;99.90
22337;DHT22;14992;50.844;4.418;2023-03-13T03:43:54;13.90;99.90
22337;DHT22;14992;50.844;4.418;2023-03-13T03:46:28;13.90;99.90
22337;DHT22;14992;50.844;4.418;2023-03-13T03:48:57;13.90;99.90
22337;DHT22;14992;50.844;4.418;2023-03-13T03:51:26;13.90;99.90
22337;DHT22;14992;50.844;4.418;2023-03-13T03:53:55;13.90;99.90
22337;DHT22;14992;50.844;4.418;2023-03-13T03:56:25;13.90;99.90
22337;DHT22;14992;50.844;4.418;2023-03-13T03:58:56;13.90;99.90
22337;DHT22;14992;50.844;4.418;2023-03-13T04:01:46;14.00;99.90
22337;DHT22;14992;50.844;4.418;2023-03-13T04:04:20;14.00;99.90
22337;DHT22;14992;50.844;4.418;2023-03-13T04:06:55;14.00;99.90
22337;DHT22;14992;50.844;4.418;2023-03-13T04:09:25;14.00;99.90
22337;DHT22;14992;50.844;4.418;2023-03-13T04:11:58;14.00;99.90
22337;DHT22;14992;50.844;4.418;2023-03-13T04:14:29;14.00;99.90
22337;DHT22;14992;50.844;4.418;2023-03-13T04:17:00;14.00;99.90
22337;DHT22;14992;50.844;4.418;2023-03-13T04:19:29;14.10;99.90
22337;DHT22;14992;50.844;4.418;2023-03-13T04:21:58;14.20;99.90
22337;DHT22;14992;50.844;4.418;2023-03-13T04:24:26;14.20;99.90
22337;DHT22;14992;50.844;4.418;2023-03-13T04:26:56;14.10;99.90
22337;DHT22;14992;50.844;4.418;2023-03-13T04:29:27;14.00;99.90
22337;DHT22;14992;50.844;4.418;2023-03-13T04:32:05;14.10;99.90
22337;DHT22;14992;50.844;4.418;2023-03-13T04:35:00;14.10;99.90
22337;DHT22;14992;50.844;4.418;2023-03-13T04:37:29;14.10;99.90
22337;DHT22;14992;50.844;4.418;2023-03-13T04:40:17;14.10;99.90
22337;DHT22;14992;50.844;4.418;2023-03-13T04:43:00;14.10;99.90
22337;DHT22;14992;50.844;4.418;2023-03-13T04:45:33;14.10;99.90
22337;DHT22;14992;50.844;4.418;2023-03-13T04:48:22;14.20;99.90
22337;DHT22;14992;50.844;4.418;2023-03-13T04:51:11;14.20;99.90
22337;DHT22;14992;50.844;4.418;2023-03-13T04:54:00;14.20;99.90
22337;DHT22;14992;50.844;4.418;2023-03-13T04:56:47;14.20;99.90
22337;DHT22;14992;50.844;4.418;2023-03-13T04:59:28;14.10;99.90
22337;DHT22;14992;50.844;4.418;2023-03-13T05:01:58;14.20;99.90
22337;DHT22;14992;50.844;4.418;2023-03-13T05:04:59;14.20;99.90
22337;DHT22;14992;50.844;4.418;2023-03-13T05:07:47;14.20;99.90
22337;DHT22;14992;50.844;4.418;2023-03-13T05:10:34;14.10;99.90
22337;DHT22;14992;50.844;4.418;2023-03-13T05:13:21;14.10;99.90
22337;DHT22;14992;50.844;4.418;2023-03-13T05:15:57;14.20;99.90
22337;DHT22;14992;50.844;4.418;2023-03-13T05:18:54;14.20;99.90
22337;DHT22;14992;50.844;4.418;2023-03-13T05:21:43;14.10;99.90
22337;DHT22;14992;50.844;4.418;2023-03-13T05:24:30;14.10;99.90
22337;DHT22;14992;50.844;4.418;2023-03-13T05:27:18;14.20;99.90
22337;DHT22;14992;50.844;4.418;2023-03-13T05:30:09;14.10;99.90
22337;DHT22;14992;50.844;4.418;2023-03-13T05:33:17;14.20;99.90
22337;DHT22;14992;50.844;4.418;2023-03-13T05:35:57;14.20;99.90
22337;DHT22;14992;50.844;4.418;2023-03-13T05:38:36;14.30;99.90
22337;DHT22;14992;50.844;4.418;2023-03-13T05:41:23;14.30;99.90
22337;DHT22;14992;50.844;4.418;2023-03-13T05:43:58;14.30;99.90
22337;DHT22;14992;50.844;4.418;2023-03-13T05:46:59;14.30;99.90
22337;DHT22;14992;50.844;4.418;2023-03-13T05:49:39;14.30;99.90
22337;DHT22;14992;50.844;4.418;2023-03-13T05:52:28;14.30;99.90
22337;DHT22;14992;50.844;4.418;2023-03-13T05:55:07;14.20;99.90
22337;DHT22;14992;50.844;4.418;2023-03-13T05:57:58;14.30;99.90
22337;DHT22;14992;50.844;4.418;2023-03-13T06:00:53;14.30;99.90
22337;DHT22;14992;50.844;4.418;2023-03-13T06:03:45;14.40;99.90
22337;DHT22;14992;50.844;4.418;2023-03-13T06:06:16;14.40;99.90
22337;DHT22;14992;50.844;4.418;2023-03-13T06:08:52;14.40;99.90
22337;DHT22;14992;50.844;4.418;2023-03-13T06:11:24;14.40;99.90
22337;DHT22;14992;50.844;4.418;2023-03-13T06:13:53;14.50;99.90
22337;DHT22;14992;50.844;4.418;2023-03-13T06:16:36;14.40;99.90
22337;DHT22;14992;50.844;4.418;2023-03-13T06:19:14;14.40;99.90
22337;DHT22;14992;50.844;4.418;2023-03-13T06:21:43;14.50;99.90
22337;DHT22;14992;50.844;4.418;2023-03-13T06:24:14;14.50;99.90
22337;DHT22;14992;50.844;4.418;2023-03-13T06:26:43;14.50;99.90
22337;DHT22;14992;50.844;4.418;2023-03-13T06:29:11;14.60;99.90
22337;DHT22;14992;50.844;4.418;2023-03-13T06:31:40;14.60;99.90
22337;DHT22;14992;50.844;4.418;2023-03-13T06:34:10;14.60;99.90
22337;DHT22;14992;50.844;4.418;2023-03-13T06:36:39;14.50;99.90
22337;DHT22;14992;50.844;4.418;2023-03-13T06:39:08;14.50;99.90
22337;DHT22;14992;50.844;4.418;2023-03-13T06:41:39;14.50;99.90
22337;DHT22;14992;50.844;4.418;2023-03-13T06:44:07;14.60;99.90
22337;DHT22;14992;50.844;4.418;2023-03-13T06:46:36;14.50;99.90
22337;DHT22;14992;50.844;4.418;2023-03-13T06:49:05;14.60;99.90
22337;DHT22;14992;50.844;4.418;2023-03-13T06:51:34;14.50;99.90
22337;DHT22;14992;50.844;4.418;2023-03-13T06:54:03;14.60;99.90
22337;DHT22;14992;50.844;4.418;2023-03-13T06:56:32;14.50;99.90
22337;DHT22;14992;50.844;4.418;2023-03-13T06:59:02;14.60;99.90
22337;DHT22;14992;50.844;4.418;2023-03-13T07:01:31;14.60;99.90
22337;DHT22;14992;50.844;4.418;2023-03-13T07:03:59;14.60;99.90
22337;DHT22;14992;50.844;4.418;2023-03-13T07:06:29;14.50;99.90
22337;DHT22;14992;50.844;4.418;2023-03-13T07:08:57;14.60;99.90
22337;DHT22;14992;50.844;4.418;2023-03-13T07:11:26;14.60;99.90
22337;DHT22;14992;50.844;4.418;2023-03-13T07:13:55;14.60;99.90
22337;DHT22;14992;50.844;4.418;2023-03-13T07:16:44;14.60;99.90
22337;DHT22;14992;50.844;4.418;2023-03-13T07:19:13;14.70;99.90
22337;DHT22;14992;50.844;4.418;2023-03-13T07:21:42;14.70;99.90
22337;DHT22;14992;50.844;4.418;2023-03-13T07:24:13;14.60;99.90
22337;DHT22;14992;50.844;4.418;2023-03-13T07:26:41;14.60;99.90
22337;DHT22;14992;50.844;4.418;2023-03-13T07:29:30;14.60;99.90
22337;DHT22;14992;50.844;4.418;2023-03-13T07:32:00;14.70;99.90
22337;DHT22;14992;50.844;4.418;2023-03-13T07:34:29;14.60;99.90
22337;DHT22;14992;50.844;4.418;2023-03-13T07:36:58;14.70;99.90
22337;DHT22;14992;50.844;4.418;2023-03-13T07:39:27;14.70;99.90
22337;DHT22;14992;50.844;4.418;2023-03-13T07:41:55;14.70;99.90
22337;DHT22;14992;50.844;4.418;2023-03-13T07:44:24;14.70;99.90
22337;DHT22;14992;50.844;4.418;2023-03-13T07:46:53;14.80;99.90
22337;DHT22;14992;50.844;4.418;2023-03-13T07:49:24;14.90;99.90
22337;DHT22;14992;50.844;4.418;2023-03-13T07:51:53;15.00;99.90
22337;DHT22;14992;50.844;4.418;2023-03-13T07:54:22;14.90;99.90
22337;DHT22;14992;50.844;4.418;2023-03-13T07:56:51;14.80;99.90
22337;DHT22;14992;50.844;4.418;2023-03-13T07:59:20;14.70;99.90
22337;DHT22;14992;50.844;4.418;2023-03-13T08:01:48;14.70;99.90
22337;DHT22;14992;50.844;4.418;2023-03-13T08:04:17;14.70;99.90
22337;DHT22;14992;50.844;4.418;2023-03-13T08:06:48;14.70;99.90
22337;DHT22;14992;50.844;4.418;2023-03-13T08:09:18;14.50;99.90
22337;DHT22;14992;50.844;4.418;2023-03-13T08:11:46;14.50;99.90
22337;DHT22;14992;50.844;4.418;2023-03-13T08:14:15;14.40;99.90
22337;DHT22;14992;50.844;4.418;2023-03-13T08:16:44;14.60;99.90
22337;DHT22;14992;50.844;4.418;2023-03-13T08:19:13;14.60;99.90
22337;DHT22;14992;50.844;4.418;2023-03-13T08:21:42;14.70;99.90
22337;DHT22;14992;50.844;4.418;2023-03-13T08:24:12;14.90;99.90
22337;DHT22;14992;50.844;4.418;2023-03-13T08:26:41;15.00;99.90
22337;DHT22;14992;50.844;4.418;2023-03-13T08:29:12;15.00;99.90
22337;DHT22;14992;50.844;4.418;2023-03-13T08:31:43;15.10;99.90
22337;DHT22;14992;50.844;4.418;2023-03-13T08:34:14;15.20;99.90
22337;DHT22;14992;50.844;4.418;2023-03-13T08:36:43;15.20;99.90
22337;DHT22;14992;50.844;4.418;2023-03-13T08:39:15;15.20;99.90
22337;DHT22;14992;50.844;4.418;2023-03-13T08:41:45;15.30;99.90
22337;DHT22;14992;50.844;4.418;2023-03-13T08:44:15;15.30;99.90
22337;DHT22;14992;50.844;4.418;2023-03-13T08:46:45;15.30;99.90
22337;DHT22;14992;50.844;4.418;2023-03-13T08:49:15;15.30;99.90
22337;DHT22;14992;50.844;4.418;2023-03-13T08:51:45;15.40;99.90
22337;DHT22;14992;50.844;4.418;2023-03-13T08:54:15;15.50;99.90
22337;DHT22;14992;50.844;4.418;2023-03-13T08:56:58;15.60;99.90
22337;DHT22;14992;50.844;4.418;2023-03-13T08:59:28;15.70;99.90
22337;DHT22;14992;50.844;4.418;2023-03-13T09:01:57;15.80;99.90
22337;DHT22;14992;50.844;4.418;2023-03-13T09:04:25;15.80;99.90
22337;DHT22;14992;50.844;4.418;2023-03-13T09:06:54;15.70;99.90
22337;DHT22;14992;50.844;4.418;2023-03-13T09:09:25;15.70;99.90
22337;DHT22;14992;50.844;4.418;2023-03-13T09:11:54;15.80;99.90
22337;DHT22;14992;50.844;4.418;2023-03-13T09:14:23;16.00;99.90
22337;DHT22;14992;50.844;4.418;2023-03-13T09:16:52;16.00;99.90
22337;DHT22;14992;50.844;4.418;2023-03-13T09:19:21;15.90;99.90
22337;DHT22;14992;50.844;4.418;2023-03-13T09:21:50;15.90;99.90
22337;DHT22;14992;50.844;4.418;2023-03-13T09:24:18;15.90;99.90
22337;DHT22;14992;50.844;4.418;2023-03-13T09:26:49;15.90;99.90
22337;DHT22;14992;50.844;4.418;2023-03-13T09:29:27;16.00;99.90
22337;DHT22;14992;50.844;4.418;2023-03-13T09:31:56;16.20;99.90
22337;DHT22;14992;50.844;4.418;2023-03-13T09:34:26;16.40;99.90
22337;DHT22;14992;50.844;4.418;2023-03-13T09:36:55;16.40;99.90
22337;DHT22;14992;50.844;4.418;2023-03-13T09:39:23;16.40;99.90
22337;DHT22;14992;50.844;4.418;2023-03-13T09:41:57;16.60;99.90
22337;DHT22;14992;50.844;4.418;2023-03-13T09:44:36;16.60;99.90
22337;DHT22;14992;50.844;4.418;2023-03-13T09:47:13;16.50;99.90
22337;DHT22;14992;50.844;4.418;2023-03-13T09:49:46;16.70;99.90
22337;DHT22;14992;50.844;4.418;2023-03-13T09:52:20;16.80;99.90
22337;DHT22;14992;50.844;4.418;2023-03-13T09:54:53;16.80;99.90
22337;DHT22;14992;50.844;4.418;2023-03-13T09:57:30;16.60;99.90
22337;DHT22;14992;50.844;4.418;2023-03-13T10:00:04;16.50;99.90
22337;DHT22;14992;50.844;4.418;2023-03-13T10:02:40;16.60;99.90
22337;DHT22;14992;50.844;4.418;2023-03-13T10:05:15;16.50;99.90
22337;DHT22;14992;50.844;4.418;2023-03-13T10:07:45;16.40;99.90
22337;DHT22;14992;50.844;4.418;2023-03-13T10:10:15;16.50;99.90
22337;DHT22;14992;50.844;4.418;2023-03-13T10:12:47;16.70;99.90
22337;DHT22;14992;50.844;4.418;2023-03-13T10:15:33;16.90;99.90
22337;DHT22;14992;50.844;4.418;2023-03-13T10:18:16;17.10;99.90
22337;DHT22;14992;50.844;4.418;2023-03-13T10:20:47;17.20;99.90
22337;DHT22;14992;50.844;4.418;2023-03-13T10:23:25;17.10;99.90
22337;DHT22;14992;50.844;4.418;2023-03-13T10:25:55;17.00;99.90
22337;DHT22;14992;50.844;4.418;2023-03-13T10:28:25;16.90;99.90
22337;DHT22;14992;50.844;4.418;2023-03-13T10:30:59;16.70;99.90
22337;DHT22;14992;50.844;4.418;2023-03-13T10:33:31;16.70;99.90
22337;DHT22;14992;50.844;4.418;2023-03-13T10:36:07;16.60;99.90
22337;DHT22;14992;50.844;4.418;2023-03-13T10:38:46;16.70;99.90
22337;DHT22;14992;50.844;4.418;2023-03-13T10:41:24;16.70;99.90
22337;DHT22;14992;50.844;4.418;2023-03-13T10:43:59;16.60;99.90
22337;DHT22;14992;50.844;4.418;2023-03-13T10:46:30;16.60;99.90
22337;DHT22;14992;50.844;4.418;2023-03-13T10:49:01;16.80;99.90
22337;DHT22;14992;50.844;4.418;2023-03-13T10:51:36;16.80;99.90
22337;DHT22;14992;50.844;4.418;2023-03-13T10:54:18;16.80;99.90
22337;DHT22;14992;50.844;4.418;2023-03-13T10:56:49;16.70;99.90
22337;DHT22;14992;50.844;4.418;2023-03-13T10:59:22;16.90;99.90
22337;DHT22;14992;50.844;4.418;2023-03-13T11:01:53;17.10;99.90
22337;DHT22;14992;50.844;4.418;2023-03-13T11:04:30;17.10;99.90
22337;DHT22;14992;50.844;4.418;2023-03-13T11:07:02;17.10;99.90
22337;DHT22;14992;50.844;4.418;2023-03-13T11:09:31;17.00;99.90
22337;DHT22;14992;50.844;4.418;2023-03-13T11:12:04;17.10;99.90
22337;DHT22;14992;50.844;4.418;2023-03-13T11:14:35;17.10;99.90
22337;DHT22;14992;50.844;4.418;2023-03-13T11:17:10;17.10;99.90
22337;DHT22;14992;50.844;4.418;2023-03-13T11:19:53;17.00;99.90
22337;DHT22;14992;50.844;4.418;2023-03-13T11:22:29;16.90;99.90
22337;DHT22;14992;50.844;4.418;2023-03-13T11:25:08;16.60;99.90
22337;DHT22;14992;50.844;4.418;2023-03-13T11:27:45;16.60;99.90
22337;DHT22;14992;50.844;4.418;2023-03-13T11:30:31;16.80;99.90
22337;DHT22;14992;50.844;4.418;2023-03-13T11:33:04;17.20;99.90
22337;DHT22;14992;50.844;4.418;2023-03-13T11:35:38;17.40;99.90
22337;DHT22;14992;50.844;4.418;2023-03-13T11:38:15;17.60;99.90
22337;DHT22;14992;50.844;4.418;2023-03-13T11:40:53;17.80;99.90
22337;DHT22;14992;50.844;4.418;2023-03-13T11:43:38;17.80;99.90
22337;DHT22;14992;50.844;4.418;2023-03-13T11:46:22;17.60;99.90
22337;DHT22;14992;50.844;4.418;2023-03-13T11:52:08;17.40;99.90
22337;DHT22;14992;50.844;4.418;2023-03-13T11:54:55;17.40;99.90
22337;DHT22;14992;50.844;4.418;2023-03-13T11:57:28;17.40;99.90
22337;DHT22;14992;50.844;4.418;2023-03-13T12:00:21;17.70;99.90
22337;DHT22;14992;50.844;4.418;2023-03-13T12:02:55;18.00;99.90
22337;DHT22;14992;50.844;4.418;2023-03-13T12:05:27;18.20;99.90
22337;DHT22;14992;50.844;4.418;2023-03-13T12:08:01;18.20;99.90
22337;DHT22;14992;50.844;4.418;2023-03-13T12:10:35;18.10;99.90
22337;DHT22;14992;50.844;4.418;2023-03-13T12:13:11;18.00;99.90
22337;DHT22;14992;50.844;4.418;2023-03-13T12:15:43;17.90;99.90
22337;DHT22;14992;50.844;4.418;2023-03-13T12:18:18;17.90;99.90
22337;DHT22;14992;50.844;4.418;2023-03-13T12:20:52;18.00;99.90
22337;DHT22;14992;50.844;4.418;2023-03-13T12:23:30;18.00;99.90
22337;DHT22;14992;50.844;4.418;2023-03-13T12:26:04;18.00;99.90
22337;DHT22;14992;50.844;4.418;2023-03-13T12:28:37;18.00;99.90
22337;DHT22;14992;50.844;4.418;2023-03-13T12:31:18;17.90;99.90
22337;DHT22;14992;50.844;4.418;2023-03-13T12:33:56;17.90;99.90
22337;DHT22;14992;50.844;4.418;2023-03-13T12:36:30;17.90;99.90
22337;DHT22;14992;50.844;4.418;2023-03-13T12:39:09;18.00;99.90
22337;DHT22;14992;50.844;4.418;2023-03-13T12:41:45;18.00;99.90
22337;DHT22;14992;50.844;4.418;2023-03-13T12:44:18;17.90;99.90
22337;DHT22;14992;50.844;4.418;2023-03-13T12:46:54;18.10;99.90
22337;DHT22;14992;50.844;4.418;2023-03-13T12:58:42;18.00;99.90
22337;DHT22;14992;50.844;4.418;2023-03-13T13:01:15;18.30;99.90
22337;DHT22;14992;50.844;4.418;2023-03-13T13:03:52;18.50;99.90
22337;DHT22;14992;50.844;4.418;2023-03-13T13:06:25;18.50;99.90
22337;DHT22;14992;50.844;4.418;2023-03-13T13:09:07;18.40;99.90
22337;DHT22;14992;50.844;4.418;2023-03-13T13:11:47;18.30;99.90
22337;DHT22;14992;50.844;4.418;2023-03-13T13:17:24;17.80;99.90
22337;DHT22;14992;50.844;4.418;2023-03-13T13:19:55;17.90;99.90
22337;DHT22;14992;50.844;4.418;2023-03-13T13:22:48;17.90;99.90
22337;DHT22;14992;50.844;4.418;2023-03-13T13:25:31;18.00;99.90
22337;DHT22;14992;50.844;4.418;2023-03-13T13:28:23;18.00;99.90
22337;DHT22;14992;50.844;4.418;2023-03-13T13:30:54;18.00;99.90
22337;DHT22;14992;50.844;4.418;2023-03-13T13:33:38;18.00;99.90
22337;DHT22;14992;50.844;4.418;2023-03-13T13:36:29;18.00;99.90
22337;DHT22;14992;50.844;4.418;2023-03-13T13:38:59;18.00;99.90
22337;DHT22;14992;50.844;4.418;2023-03-13T13:41:37;18.00;99.90
22337;DHT22;14992;50.844;4.418;2023-03-13T13:44:23;18.00;99.90
22337;DHT22;14992;50.844;4.418;2023-03-13T13:46:54;17.80;99.90
22337;DHT22;14992;50.844;4.418;2023-03-13T13:49:33;17.70;99.90
22337;DHT22;14992;50.844;4.418;2023-03-13T13:55:42;17.60;99.90
22337;DHT22;14992;50.844;4.418;2023-03-13T13:58:16;17.60;99.90
22337;DHT22;14992;50.844;4.418;2023-03-13T14:00:50;17.60;99.90
22337;DHT22;14992;50.844;4.418;2023-03-13T14:03:22;17.70;99.90
22337;DHT22;14992;50.844;4.418;2023-03-13T14:05:54;17.80;99.90
22337;DHT22;14992;50.844;4.418;2023-03-13T14:08:26;17.80;99.90
22337;DHT22;14992;50.844;4.418;2023-03-13T14:11:15;17.90;99.90
22337;DHT22;14992;50.844;4.418;2023-03-13T14:14:10;17.80;99.90
22337;DHT22;14992;50.844;4.418;2023-03-13T14:16:43;17.70;99.90
22337;DHT22;14992;50.844;4.418;2023-03-13T14:19:24;17.70;99.90
22337;DHT22;14992;50.844;4.418;2023-03-13T14:22:00;17.90;99.90
22337;DHT22;14992;50.844;4.418;2023-03-13T14:24:29;18.20;99.90
22337;DHT22;14992;50.844;4.418;2023-03-13T14:27:00;18.10;99.90
22337;DHT22;14992;50.844;4.418;2023-03-13T14:29:29;18.10;99.90
22337;DHT22;14992;50.844;4.418;2023-03-13T14:31:59;18.00;99.90
22337;DHT22;14992;50.844;4.418;2023-03-13T14:34:27;18.10;99.90
22337;DHT22;14992;50.844;4.418;2023-03-13T14:37:00;17.90;99.90
22337;DHT22;14992;50.844;4.418;2023-03-13T14:39:45;17.90;99.90
22337;DHT22;14992;50.844;4.418;2023-03-13T14:42:18;17.90;99.90
22337;DHT22;14992;50.844;4.418;2023-03-13T14:44:47;17.90;99.90
22337;DHT22;14992;50.844;4.418;2023-03-13T14:47:23;18.00;99.90
22337;DHT22;14992;50.844;4.418;2023-03-13T14:49:55;17.90;99.90
22337;DHT22;14992;50.844;4.418;2023-03-13T14:52:27;17.90;99.90
22337;DHT22;14992;50.844;4.418;2023-03-13T14:54:58;17.80;99.90
22337;DHT22;14992;50.844;4.418;2023-03-13T14:57:32;17.80;99.90
22337;DHT22;14992;50.844;4.418;2023-03-13T15:00:28;18.00;99.90
22337;DHT22;14992;50.844;4.418;2023-03-13T15:03:21;17.90;99.90
22337;DHT22;14992;50.844;4.418;2023-03-13T15:06:04;17.80;99.90
22337;DHT22;14992;50.844;4.418;2023-03-13T15:08:34;17.90;99.90
22337;DHT22;14992;50.844;4.418;2023-03-13T15:11:17;17.90;99.90
22337;DHT22;14992;50.844;4.418;2023-03-13T15:13:48;17.90;99.90
22337;DHT22;14992;50.844;4.418;2023-03-13T15:16:18;17.90;99.90
22337;DHT22;14992;50.844;4.418;2023-03-13T15:18:48;17.90;99.90
22337;DHT22;14992;50.844;4.418;2023-03-13T15:21:28;17.90;99.90
22337;DHT22;14992;50.844;4.418;2023-03-13T15:23:59;17.90;99.90
22337;DHT22;14992;50.844;4.418;2023-03-13T15:26:29;17.90;99.90
22337;DHT22;14992;50.844;4.418;2023-03-13T15:28:59;17.90;99.90
22337;DHT22;14992;50.844;4.418;2023-03-13T15:31:28;18.00;99.90
22337;DHT22;14992;50.844;4.418;2023-03-13T15:33:59;17.90;99.90
22337;DHT22;14992;50.844;4.418;2023-03-13T15:36:29;17.80;99.90
22337;DHT22;14992;50.844;4.418;2023-03-13T15:38:59;17.80;99.90
22337;DHT22;14992;50.844;4.418;2023-03-13T15:41:28;17.80;99.90
22337;DHT22;14992;50.844;4.418;2023-03-13T15:43:58;17.90;99.90
22337;DHT22;14992;50.844;4.418;2023-03-13T15:46:28;17.80;99.90
22337;DHT22;14992;50.844;4.418;2023-03-13T15:48:57;17.70;99.90
22337;DHT22;14992;50.844;4.418;2023-03-13T15:51:26;17.60;99.90
22337;DHT22;14992;50.844;4.418;2023-03-13T15:53:55;17.50;99.90
22337;DHT22;14992;50.844;4.418;2023-03-13T15:56:35;17.50;99.90
22337;DHT22;14992;50.844;4.418;2023-03-13T15:59:10;17.50;99.90
22337;DHT22;14992;50.844;4.418;2023-03-13T16:01:39;17.40;99.90
22337;DHT22;14992;50.844;4.418;2023-03-13T16:04:10;17.50;99.90
22337;DHT22;14992;50.844;4.418;2023-03-13T16:06:38;17.50;99.90
22337;DHT22;14992;50.844;4.418;2023-03-13T16:09:09;17.50;99.90
22337;DHT22;14992;50.844;4.418;2023-03-13T16:11:38;17.50;99.90
22337;DHT22;14992;50.844;4.418;2023-03-13T16:14:07;17.30;99.90
22337;DHT22;14992;50.844;4.418;2023-03-13T16:16:38;17.20;99.90
22337;DHT22;14992;50.844;4.418;2023-03-13T16:19:08;17.10;99.90
22337;DHT22;14992;50.844;4.418;2023-03-13T16:21:37;17.10;99.90
22337;DHT22;14992;50.844;4.418;2023-03-13T16:24:09;17.10;99.90
22337;DHT22;14992;50.844;4.418;2023-03-13T16:26:38;17.20;99.90
22337;DHT22;14992;50.844;4.418;2023-03-13T16:29:10;17.20;99.90
22337;DHT22;14992;50.844;4.418;2023-03-13T16:31:40;17.30;99.90